Weather at Lyon Saint-Exupéry Airport

Public forecast

Using degrees Celsius for public forecast. Weather courtesy of forecast.io.

Current aviation weather report (METAR) for Lyon Saint-Exupéry Airport

Report is more than 6 hours old.

2022/11/14 15:30 (retrieved 2 years ago)

LFLL 141530Z 15005KT CAVOK 15/07 Q1016 NOSIG

Aviation forecast (TAF) for Lyon Saint-Exupéry Airport

Forecast is more than 12 hours old.

2023/02/22 18:22 (retrieved 1 year ago)

TAF LFLL 221700Z 2218/2324 15005KT 9999 FEW020 BKN045 PROB40 TEMPO 2218/2221 SHRA SCT040TCU TEMPO 2306/2311 BKN008 TEMPO 2316/2321 SHRA SCT025TCU